Time;durP1;ratioP1;P1;durP2;ratioP2;P2;SDS_P1;SDS_P2;PMS_P1;PMS_P2;Temp;Humidity;BMP_temperature;BMP_pressure;BME280_temperature;BME280_humidity;BME280_pressure;Samples;Min_cycle;Max_cycle;Signal;HPM_P1;HPM_P2
2021/12/13 00:00:25;;;;;;;;;;;;;;;-0.25;76.04;101275.91;102137;1333;25484;-77
2021/12/13 00:02:56;;;;;;;;;;;;;;;-0.27;76.25;101275.46;102142;1332;24450;-75
2021/12/13 00:05:38;;;;;;;;;;;;;;;-0.22;76.64;101274.84;102114;1333;26737;-76
2021/12/13 00:08:07;;;;;;;;;;;;;;;-0.11;76.64;101277.98;102227;1330;22606;-76
2021/12/13 00:10:39;;;;;;;;;;;;;;;-0.12;76.01;101281.39;102099;1327;24368;-77
2021/12/13 00:13:09;;;;;;;;;;;;;;;-0.14;76.00;101280.64;102872;1326;24284;-78
2021/12/13 00:15:42;;;;;;;;;;;;;;;-0.14;76.27;101282.00;102823;1326;25374;-76
2021/12/13 00:18:14;;;;;;;;;;;;;;;-0.20;75.86;101282.53;102862;1326;24425;-76
2021/12/13 00:20:44;;;;;;;;;;;;;;;-0.28;75.99;101280.98;102790;1326;22779;-75
2021/12/13 00:23:18;;;;;;;;;;;;;;;-0.37;75.87;101284.70;102708;1326;22562;-75
2021/12/13 00:25:46;;;;;;;;;;;;;;;-0.40;76.10;101287.81;102711;1326;25215;-75
2021/12/13 00:28:17;;;;;;;;;;;;;;;-0.40;76.07;101287.11;102567;1326;22627;-76
2021/12/13 00:30:53;;;;;;;;;;;;;;;-0.38;76.42;101289.30;102895;1326;25235;-76
2021/12/13 00:33:26;;;;;;;;;;;;;;;-0.31;76.54;101291.05;102750;1326;22570;-76
2021/12/13 00:35:59;;;;;;;;;;;;;;;-0.26;76.67;101294.05;102889;1326;27149;-75
2021/12/13 00:38:28;;;;;;;;;;;;;;;-0.18;76.75;101293.40;102907;1326;22551;-77
2021/12/13 00:41:05;;;;;;;;;;;;;;;-0.11;76.55;101289.73;102851;1325;23171;-74
2021/12/13 00:43:36;;;;;;;;;;;;;;;-0.20;75.97;101290.69;102717;1326;22556;-79
2021/12/13 00:46:06;;;;;;;;;;;;;;;-0.32;75.79;101290.32;102994;1326;25268;-78
2021/12/13 00:48:35;;;;;;;;;;;;;;;-0.51;75.70;101288.32;102820;1326;23993;-79
2021/12/13 00:51:15;;;;;;;;;;;;;;;-0.57;76.37;101290.96;102652;1329;25287;-76
2021/12/13 00:53:44;;;;;;;;;;;;;;;-0.50;76.88;101289.58;102579;1329;26536;-79
2021/12/13 00:56:30;;;;;;;;;;;;;;;-0.51;76.63;101290.91;102662;1329;22577;-76
2021/12/13 00:58:57;;;;;;;;;;;;;;;-0.43;77.22;101289.23;102618;1325;24402;-77
2021/12/13 01:01:23;;;;;;;;;;;;;;;-0.34;77.08;101286.55;102577;1330;22917;-76
2021/12/13 01:03:51;;;;;;;;;;;;;;;-0.34;76.57;101288.63;102750;1329;22816;-78
2021/12/13 01:06:37;;;;;;;;;;;;;;;-0.40;76.59;101290.25;102879;1329;23347;-76
2021/12/13 01:09:23;;;;;;;;;;;;;;;-0.32;77.25;101298.77;102498;1327;22785;-77
2021/12/13 01:11:55;;;;;;;;;;;;;;;-0.24;77.10;101290.86;102521;1326;23173;-76
2021/12/13 01:14:30;;;;;;;;;;;;;;;-0.15;77.04;101293.03;102754;1326;22564;-79
2021/12/13 01:17:07;;;;;;;;;;;;;;;-0.10;76.84;101292.91;102883;1326;22726;-77
2021/12/13 01:19:55;;;;;;;;;;;;;;;-0.08;76.58;101287.13;102814;1326;22771;-76
2021/12/13 01:22:57;;;;;;;;;;;;;;;-0.07;76.64;101280.60;102488;1329;22820;-76
2021/12/13 01:25:59;;;;;;;;;;;;;;;-0.04;76.84;101284.20;102378;1329;22534;-75
2021/12/13 01:28:33;;;;;;;;;;;;;;;0.02;76.69;101292.77;102523;1329;22626;-74
2021/12/13 01:31:04;;;;;;;;;;;;;;;-0.01;76.31;101293.01;102403;1329;24250;-76
2021/12/13 01:33:31;;;;;;;;;;;;;;;-0.10;75.69;101295.52;102315;1329;24097;-75
2021/12/13 01:36:01;;;;;;;;;;;;;;;-0.38;75.34;101307.66;102523;1329;22590;-78
2021/12/13 01:38:36;;;;;;;;;;;;;;;-0.57;75.78;101315.70;102526;1328;22801;-76
2021/12/13 01:41:08;;;;;;;;;;;;;;;-0.68;76.28;101311.48;102612;1326;24173;-76
2021/12/13 01:43:38;;;;;;;;;;;;;;;-0.75;76.70;101305.65;102753;1326;22570;-77
2021/12/13 01:46:05;;;;;;;;;;;;;;;-0.70;77.12;101309.33;102775;1323;22540;-75
2021/12/13 01:48:34;;;;;;;;;;;;;;;-0.66;77.27;101308.51;102767;1326;22954;-75
2021/12/13 01:51:08;;;;;;;;;;;;;;;-0.55;77.30;101302.65;102875;1326;25293;-76
2021/12/13 01:53:47;;;;;;;;;;;;;;;-0.51;77.33;101293.86;102858;1326;22895;-78
2021/12/13 01:59:15;;;;;;;;;;;;;;;-0.54;76.93;101274.19;102862;1326;25543;-74
2021/12/13 02:01:43;;;;;;;;;;;;;;;-0.45;77.30;101274.58;102865;1326;22574;-75
2021/12/13 02:04:13;;;;;;;;;;;;;;;-0.36;77.22;101276.45;102806;1326;25188;-76
2021/12/13 02:06:42;;;;;;;;;;;;;;;-0.33;77.09;101268.23;102845;1325;22567;-78
2021/12/13 02:09:18;;;;;;;;;;;;;;;-0.34;76.92;101271.65;102778;1326;24202;-78
2021/12/13 02:11:46;;;;;;;;;;;;;;;-0.31;77.23;101274.58;102813;1322;22560;-79
2021/12/13 02:14:16;;;;;;;;;;;;;;;-0.22;77.34;101274.67;102877;1326;22592;-80
2021/12/13 02:16:58;;;;;;;;;;;;;;;-0.15;76.98;101271.54;102872;1325;22574;-79
2021/12/13 02:19:37;;;;;;;;;;;;;;;-0.24;76.32;101272.86;102978;1326;25490;-77
2021/12/13 02:22:24;;;;;;;;;;;;;;;-0.29;76.54;101284.35;102895;1326;26595;-76
2021/12/13 02:24:52;;;;;;;;;;;;;;;-0.51;75.87;101281.55;103468;1326;25260;-79
2021/12/13 02:27:21;;;;;;;;;;;;;;;-0.67;76.33;101282.65;102792;1326;26512;-74
2021/12/13 02:29:49;;;;;;;;;;;;;;;-0.69;76.87;101288.75;102324;1330;24607;-78
2021/12/13 02:32:16;;;;;;;;;;;;;;;-0.67;77.00;101280.38;102338;1330;22581;-77
2021/12/13 02:34:43;;;;;;;;;;;;;;;-0.63;77.22;101281.98;102054;1330;22671;-74
2021/12/13 02:37:11;;;;;;;;;;;;;;;-0.52;77.61;101268.89;102071;1330;22658;-75
2021/12/13 02:39:46;;;;;;;;;;;;;;;-0.40;77.36;101275.55;101876;1336;22877;-75
2021/12/13 02:42:14;;;;;;;;;;;;;;;-0.39;76.83;101280.96;101902;1335;22574;-76
2021/12/13 02:44:44;;;;;;;;;;;;;;;-0.51;76.36;101278.64;101858;1336;24349;-76
2021/12/13 02:47:15;;;;;;;;;;;;;;;-0.56;76.72;101276.48;101924;1330;25382;-76
2021/12/13 02:49:42;;;;;;;;;;;;;;;-0.59;76.93;101276.13;102227;1330;22588;-76
2021/12/13 02:52:10;;;;;;;;;;;;;;;-0.54;76.82;101282.61;102198;1330;22580;-76
2021/12/13 02:54:39;;;;;;;;;;;;;;;-0.48;77.00;101284.47;102225;1330;25807;-75
2021/12/13 02:57:06;;;;;;;;;;;;;;;-0.51;76.62;101289.55;102475;1326;22701;-76
2021/12/13 02:59:35;;;;;;;;;;;;;;;-0.57;76.64;101284.55;102877;1326;22578;-76
2021/12/13 03:02:05;;;;;;;;;;;;;;;-0.61;76.73;101290.56;102859;1326;22584;-77
2021/12/13 03:04:33;;;;;;;;;;;;;;;-0.64;76.81;101290.23;102728;1326;23954;-76
2021/12/13 03:07:11;;;;;;;;;;;;;;;-0.67;76.88;101289.20;102797;1326;22564;-76
2021/12/13 03:09:40;;;;;;;;;;;;;;;-0.68;76.82;101283.14;102340;1329;25360;-75
2021/12/13 03:12:09;;;;;;;;;;;;;;;-0.81;76.50;101283.50;102294;1329;25491;-74
2021/12/13 03:14:41;;;;;;;;;;;;;;;-0.81;77.21;101285.41;102329;1330;22851;-77
2021/12/13 03:17:16;;;;;;;;;;;;;;;-0.71;77.53;101283.33;102414;1324;25471;-77
2021/12/13 03:19:43;;;;;;;;;;;;;;;-0.69;76.92;101285.35;102366;1329;22667;-75
2021/12/13 03:22:13;;;;;;;;;;;;;;;-0.69;77.07;101288.79;102373;1329;22711;-76
2021/12/13 03:24:58;;;;;;;;;;;;;;;-0.62;77.07;101289.84;102320;1330;22631;-77
2021/12/13 03:27:29;;;;;;;;;;;;;;;-0.67;76.38;101289.73;102544;1326;25439;-75
2021/12/13 03:29:59;;;;;;;;;;;;;;;-0.83;76.40;101290.30;102814;1326;22568;-77
2021/12/13 03:32:34;;;;;;;;;;;;;;;-0.84;76.92;101292.15;102743;1326;23430;-76
2021/12/13 03:35:12;;;;;;;;;;;;;;;-0.87;76.70;101291.34;102688;1325;24410;-75
2021/12/13 03:37:39;;;;;;;;;;;;;;;-0.98;76.76;101289.05;102800;1326;24447;-73
2021/12/13 03:40:10;;;;;;;;;;;;;;;-0.88;77.50;101286.64;102690;1326;24455;-75
2021/12/13 03:42:47;;;;;;;;;;;;;;;-0.69;77.61;101285.16;102730;1324;25338;-75
2021/12/13 03:45:19;;;;;;;;;;;;;;;-0.51;77.32;101277.40;102766;1326;23759;-73
2021/12/13 03:47:50;;;;;;;;;;;;;;;-0.38;77.23;101281.67;102808;1326;22544;-74
2021/12/13 03:50:19;;;;;;;;;;;;;;;-0.30;76.80;101281.56;102794;1325;25314;-75
2021/12/13 03:52:48;;;;;;;;;;;;;;;-0.27;76.70;101284.98;102849;1326;25501;-76
2021/12/13 03:55:16;;;;;;;;;;;;;;;-0.21;76.61;101283.20;102908;1326;22541;-76
2021/12/13 03:57:45;;;;;;;;;;;;;;;-0.14;76.58;101288.56;102268;1329;22574;-77
2021/12/13 04:00:15;;;;;;;;;;;;;;;-0.11;76.36;101284.55;102198;1330;22666;-76
2021/12/13 04:02:42;;;;;;;;;;;;;;;-0.06;76.49;101284.63;102329;1330;24370;-83
2021/12/13 04:05:11;;;;;;;;;;;;;;;-0.10;75.93;101283.60;102555;1327;23750;-74
2021/12/13 04:07:42;;;;;;;;;;;;;;;-0.28;75.50;101292.58;102231;1330;22950;-81
2021/12/13 04:10:11;;;;;;;;;;;;;;;-0.35;75.98;101295.16;101983;1330;22594;-76
2021/12/13 04:12:46;;;;;;;;;;;;;;;-0.36;76.00;101295.13;101909;1332;24527;-79
2021/12/13 04:15:16;;;;;;;;;;;;;;;-0.51;75.61;101294.34;101925;1326;25389;-75
2021/12/13 04:18:02;;;;;;;;;;;;;;;-0.61;75.67;101302.16;102825;1326;24645;-78
2021/12/13 04:20:34;;;;;;;;;;;;;;;-0.65;76.41;101297.98;102911;1326;22560;-79
2021/12/13 04:23:07;;;;;;;;;;;;;;;-0.56;76.78;101287.89;102901;1326;24746;-75
2021/12/13 04:25:36;;;;;;;;;;;;;;;-0.38;76.95;101290.99;102856;1328;25358;-75
2021/12/13 04:28:05;;;;;;;;;;;;;;;-0.29;76.57;101287.49;102782;1328;26648;-76
2021/12/13 04:30:44;;;;;;;;;;;;;;;-0.33;75.89;101289.20;102233;1332;23339;-77
2021/12/13 04:33:18;;;;;;;;;;;;;;;-0.39;76.04;101288.90;101500;1341;22780;-74
2021/12/13 04:35:48;;;;;;;;;;;;;;;-0.40;76.30;101285.20;101289;1342;22651;-75
2021/12/13 04:38:20;;;;;;;;;;;;;;;-0.43;76.05;101285.42;101517;1342;22667;-76
2021/12/13 04:40:47;;;;;;;;;;;;;;;-0.48;76.11;101283.42;101436;1339;23109;-76
2021/12/13 04:43:16;;;;;;;;;;;;;;;-0.52;76.24;101289.16;101559;1339;25230;-74
2021/12/13 04:45:45;;;;;;;;;;;;;;;-0.50;76.22;101284.38;101568;1337;25271;-77
2021/12/13 04:48:14;;;;;;;;;;;;;;;-0.56;76.20;101288.23;101878;1333;22624;-74
2021/12/13 04:50:48;;;;;;;;;;;;;;;-0.58;76.26;101292.09;102238;1326;24266;-77
2021/12/13 04:53:26;;;;;;;;;;;;;;;-0.55;76.69;101294.20;102854;1326;22997;-73
2021/12/13 04:55:53;;;;;;;;;;;;;;;-0.47;76.78;101298.02;102790;1323;25219;-77
2021/12/13 04:58:21;;;;;;;;;;;;;;;-0.41;76.69;101297.45;102952;1325;22624;-76
2021/12/13 05:00:51;;;;;;;;;;;;;;;-0.33;76.53;101295.59;102911;1326;25280;-75
2021/12/13 05:03:21;;;;;;;;;;;;;;;-0.28;76.40;101295.84;103031;1326;25888;-79
2021/12/13 05:05:48;;;;;;;;;;;;;;;-0.24;76.25;101301.06;103052;1326;26873;-78
2021/12/13 05:08:16;;;;;;;;;;;;;;;-0.19;76.11;101304.23;102998;1325;23264;-77
2021/12/13 05:10:47;;;;;;;;;;;;;;;-0.23;75.95;101307.19;102999;1324;22574;-79
2021/12/13 05:13:17;;;;;;;;;;;;;;;-0.18;75.83;101313.48;102779;1329;23721;-78
2021/12/13 05:15:51;;;;;;;;;;;;;;;-0.17;75.85;101309.38;102687;1329;25236;-80
2021/12/13 05:18:20;;;;;;;;;;;;;;;-0.16;75.77;101311.33;102563;1329;22806;-78
2021/12/13 05:20:49;;;;;;;;;;;;;;;-0.13;75.85;101308.70;102781;1324;22671;-78
2021/12/13 05:23:23;;;;;;;;;;;;;;;-0.13;75.69;101307.16;102848;1329;22952;-80
2021/12/13 05:25:53;;;;;;;;;;;;;;;-0.09;75.85;101305.07;102792;1328;22636;-77
2021/12/13 05:28:27;;;;;;;;;;;;;;;-0.07;75.65;101301.05;102388;1328;24098;-77
2021/12/13 05:30:57;;;;;;;;;;;;;;;-0.08;75.56;101301.82;102524;1327;22593;-76
2021/12/13 05:33:30;;;;;;;;;;;;;;;-0.08;75.64;101303.42;102681;1326;22570;-77
2021/12/13 05:35:58;;;;;;;;;;;;;;;-0.04;75.61;101307.41;102845;1325;25232;-77
2021/12/13 05:38:34;;;;;;;;;;;;;;;-0.01;75.51;101309.65;102905;1326;25439;-77
2021/12/13 05:41:03;;;;;;;;;;;;;;;0.04;75.56;101309.52;102794;1325;24168;-78
2021/12/13 05:43:42;;;;;;;;;;;;;;;0.11;75.57;101321.65;102869;1326;22568;-76
2021/12/13 05:46:14;;;;;;;;;;;;;;;0.17;75.36;101325.91;102729;1326;22705;-76
2021/12/13 05:48:53;;;;;;;;;;;;;;;0.17;75.37;101325.23;102913;1326;25217;-80
2021/12/13 05:51:25;;;;;;;;;;;;;;;0.21;75.29;101329.89;103039;1324;23005;-76
2021/12/13 05:53:55;;;;;;;;;;;;;;;0.22;75.18;101326.67;103557;1325;22564;-77
2021/12/13 05:56:26;;;;;;;;;;;;;;;0.26;75.29;101331.17;102940;1326;22797;-80
2021/12/13 05:58:55;;;;;;;;;;;;;;;0.31;75.17;101339.03;102723;1326;24263;-79
2021/12/13 06:01:25;;;;;;;;;;;;;;;0.35;75.14;101343.37;102787;1326;24482;-78
2021/12/13 06:04:07;;;;;;;;;;;;;;;0.32;74.99;101348.64;102966;1326;24257;-80
2021/12/13 06:06:43;;;;;;;;;;;;;;;0.27;74.76;101345.98;103131;1326;22727;-79
2021/12/13 06:09:10;;;;;;;;;;;;;;;0.26;74.87;101347.27;102826;1326;24240;-79
2021/12/13 06:11:39;;;;;;;;;;;;;;;0.26;75.00;101339.33;103008;1325;24233;-77
2021/12/13 06:14:21;;;;;;;;;;;;;;;0.30;75.03;101340.02;102853;1326;22549;-77
2021/12/13 06:16:50;;;;;;;;;;;;;;;0.33;74.91;101350.75;102837;1326;24244;-76
2021/12/13 06:19:20;;;;;;;;;;;;;;;0.32;74.61;101350.55;102888;1325;25260;-77
2021/12/13 06:21:48;;;;;;;;;;;;;;;0.30;74.61;101356.48;102951;1326;24234;-74
2021/12/13 06:24:22;;;;;;;;;;;;;;;0.25;74.68;101358.16;102991;1326;22817;-76
2021/12/13 06:26:59;;;;;;;;;;;;;;;0.27;74.65;101366.02;102946;1326;24251;-75
2021/12/13 06:29:40;;;;;;;;;;;;;;;0.22;74.64;101363.27;102897;1326;23139;-76
2021/12/13 06:32:20;;;;;;;;;;;;;;;0.17;74.57;101364.90;102903;1325;22754;-75
2021/12/13 06:35:04;;;;;;;;;;;;;;;0.20;74.87;101364.32;103143;1326;22550;-88
2021/12/13 06:37:35;;;;;;;;;;;;;;;0.20;74.69;101368.48;102757;1326;22585;-76
2021/12/13 06:40:29;;;;;;;;;;;;;;;0.17;74.65;101369.39;102797;1324;24266;-76
2021/12/13 06:42:57;;;;;;;;;;;;;;;0.19;74.78;101373.13;102996;1326;24732;-75
2021/12/13 06:45:28;;;;;;;;;;;;;;;0.25;74.93;101377.23;102970;1326;22878;-76
2021/12/13 06:47:56;;;;;;;;;;;;;;;0.33;74.85;101382.98;102956;1326;25411;-75
2021/12/13 06:50:27;;;;;;;;;;;;;;;0.36;74.73;101377.75;103000;1324;24379;-76
2021/12/13 06:53:12;;;;;;;;;;;;;;;0.40;74.63;101383.80;102691;1326;22551;-75
2021/12/13 06:55:39;;;;;;;;;;;;;;;0.40;74.72;101381.22;102873;1326;23336;-76
2021/12/13 06:58:32;;;;;;;;;;;;;;;0.43;74.63;101383.98;102792;1325;22563;-77
2021/12/13 07:01:05;;;;;;;;;;;;;;;0.46;74.62;101381.00;102549;1326;22654;-78
2021/12/13 07:03:34;;;;;;;;;;;;;;;0.46;74.44;101387.96;102918;1326;22638;-76
2021/12/13 07:06:03;;;;;;;;;;;;;;;0.44;74.34;101393.23;102907;1326;25218;-75
2021/12/13 07:08:34;;;;;;;;;;;;;;;0.43;74.30;101393.87;102942;1326;22650;-78
2021/12/13 07:11:05;;;;;;;;;;;;;;;0.38;74.27;101397.59;102911;1325;22672;-75
2021/12/13 07:13:41;;;;;;;;;;;;;;;0.34;74.38;101397.08;103401;1326;22602;-76
2021/12/13 07:16:14;;;;;;;;;;;;;;;0.34;74.53;101400.34;103147;1326;22574;-75
2021/12/13 07:18:49;;;;;;;;;;;;;;;0.34;74.63;101402.98;103131;1326;22565;-75
2021/12/13 07:21:31;;;;;;;;;;;;;;;0.37;74.73;101400.34;103045;1326;22561;-75
2021/12/13 07:24:10;;;;;;;;;;;;;;;0.41;74.58;101400.68;102830;1326;25456;-75
2021/12/13 07:26:49;;;;;;;;;;;;;;;0.41;74.61;101407.63;102969;1326;24225;-75
2021/12/13 07:29:24;;;;;;;;;;;;;;;0.45;74.58;101410.93;103009;1329;22641;-75
2021/12/13 07:32:03;;;;;;;;;;;;;;;0.43;74.45;101413.44;102793;1327;25222;-76
2021/12/13 07:34:30;;;;;;;;;;;;;;;0.46;74.52;101414.10;103177;1329;24244;-77
2021/12/13 07:36:59;;;;;;;;;;;;;;;0.44;74.43;101412.78;103374;1329;22541;-75
2021/12/13 07:39:29;;;;;;;;;;;;;;;0.45;74.44;101417.89;102537;1329;24234;-78
2021/12/13 07:41:59;;;;;;;;;;;;;;;0.45;74.29;101422.41;102304;1329;22739;-75
2021/12/13 07:44:34;;;;;;;;;;;;;;;0.43;74.06;101425.25;102547;1330;22674;-78
2021/12/13 07:47:06;;;;;;;;;;;;;;;0.42;74.19;101428.10;102701;1326;26554;-75
2021/12/13 07:49:36;;;;;;;;;;;;;;;0.41;74.19;101429.98;102797;1326;24082;-76
2021/12/13 07:52:04;;;;;;;;;;;;;;;0.47;74.46;101427.33;102829;1326;22629;-76
2021/12/13 07:54:39;;;;;;;;;;;;;;;0.52;74.11;101425.97;102792;1326;23333;-76
2021/12/13 07:57:15;;;;;;;;;;;;;;;0.52;74.05;101429.30;102969;1326;25275;-77
2021/12/13 07:59:42;;;;;;;;;;;;;;;0.56;74.12;101431.90;102971;1325;23973;-77
2021/12/13 08:02:31;;;;;;;;;;;;;;;0.63;74.21;101437.27;102842;1326;22586;-76
2021/12/13 08:05:01;;;;;;;;;;;;;;;0.68;74.05;101436.83;103703;1324;22570;-76
2021/12/13 08:07:30;;;;;;;;;;;;;;;0.69;73.95;101436.39;103613;1326;22552;-81
2021/12/13 08:09:58;;;;;;;;;;;;;;;0.69;73.90;101439.33;103057;1326;25751;-75
2021/12/13 08:12:29;;;;;;;;;;;;;;;0.71;74.03;101440.27;102876;1326;25236;-77
2021/12/13 08:15:07;;;;;;;;;;;;;;;0.76;73.91;101439.66;102875;1326;24102;-76
2021/12/13 08:17:40;;;;;;;;;;;;;;;0.79;73.82;101441.13;102837;1326;24228;-75
2021/12/13 08:20:10;;;;;;;;;;;;;;;0.78;73.71;101439.20;102811;1326;23915;-74
2021/12/13 08:22:42;;;;;;;;;;;;;;;0.78;73.99;101438.01;102730;1326;25317;-76
2021/12/13 08:25:15;;;;;;;;;;;;;;;0.83;73.91;101437.05;105107;1324;23136;-74
2021/12/13 08:27:48;;;;;;;;;;;;;;;0.87;73.64;101435.45;105393;1325;22569;-74
2021/12/13 08:30:14;;;;;;;;;;;;;;;0.87;73.54;101436.36;105219;1325;22605;-74
2021/12/13 08:33:14;;;;;;;;;;;;;;;0.87;73.40;101439.63;104720;1325;22579;-75
2021/12/13 08:35:59;;;;;;;;;;;;;;;0.86;73.22;101442.20;103602;1326;26512;-74
2021/12/13 08:38:28;;;;;;;;;;;;;;;0.85;73.41;101444.06;102961;1326;24246;-75
2021/12/13 08:40:56;;;;;;;;;;;;;;;0.88;73.53;101443.66;103098;1326;26752;-75
2021/12/13 08:43:54;;;;;;;;;;;;;;;0.87;73.21;101437.57;102905;1326;23291;-76
2021/12/13 08:46:35;;;;;;;;;;;;;;;0.86;73.40;101438.19;103081;1326;22587;-75
2021/12/13 08:49:12;;;;;;;;;;;;;;;0.86;73.27;101443.05;103046;1326;22565;-75
2021/12/13 08:51:49;;;;;;;;;;;;;;;0.85;73.39;101443.55;103108;1326;25412;-75
2021/12/13 08:54:17;;;;;;;;;;;;;;;0.84;73.10;101450.95;103109;1326;22633;-76
2021/12/13 08:56:46;;;;;;;;;;;;;;;0.79;73.14;101449.48;103007;1326;22657;-76
2021/12/13 08:59:24;;;;;;;;;;;;;;;0.81;73.24;101450.42;103014;1325;25309;-75
2021/12/13 09:01:54;;;;;;;;;;;;;;;0.83;73.20;101447.41;103078;1324;24332;-76
2021/12/13 09:04:28;;;;;;;;;;;;;;;0.86;73.11;101447.73;103041;1326;23079;-75
2021/12/13 09:06:57;;;;;;;;;;;;;;;0.90;73.10;101449.81;103107;1326;22580;-77
2021/12/13 09:09:25;;;;;;;;;;;;;;;0.95;73.21;101448.18;103009;1326;22555;-75
2021/12/13 09:11:55;;;;;;;;;;;;;;;1.04;73.11;101451.34;102825;1326;22657;-75
2021/12/13 09:14:26;;;;;;;;;;;;;;;1.08;72.98;101454.83;102923;1326;25357;-76
2021/12/13 09:17:11;;;;;;;;;;;;;;;1.09;72.78;101455.94;102808;1329;22698;-76
2021/12/13 09:19:44;;;;;;;;;;;;;;;1.10;72.90;101456.69;102704;1329;26016;-74
2021/12/13 09:22:14;;;;;;;;;;;;;;;1.10;72.63;101452.88;102526;1329;24246;-77
2021/12/13 09:24:47;;;;;;;;;;;;;;;1.07;72.60;101449.27;102745;1329;25244;-76
2021/12/13 09:27:17;;;;;;;;;;;;;;;1.10;72.63;101448.70;102673;1329;25287;-78
2021/12/13 09:29:46;;;;;;;;;;;;;;;1.10;72.58;101442.46;102520;1330;22580;-75
2021/12/13 09:32:14;;;;;;;;;;;;;;;1.09;72.42;101444.66;102540;1329;22721;-76
2021/12/13 09:34:41;;;;;;;;;;;;;;;1.03;72.46;101444.89;102551;1326;25410;-75
2021/12/13 09:37:08;;;;;;;;;;;;;;;0.99;72.40;101442.81;102905;1325;24274;-76
2021/12/13 09:39:35;;;;;;;;;;;;;;;0.93;72.29;101442.33;102896;1325;22565;-76
2021/12/13 09:42:07;;;;;;;;;;;;;;;0.86;72.40;101439.25;102764;1325;26677;-75
2021/12/13 09:44:44;;;;;;;;;;;;;;;0.85;72.56;101442.35;102816;1326;22600;-75
2021/12/13 09:47:18;;;;;;;;;;;;;;;0.86;72.45;101442.39;102836;1326;22666;-77
2021/12/13 09:49:48;;;;;;;;;;;;;;;0.84;72.55;101440.52;102792;1325;22636;-76
2021/12/13 09:52:33;;;;;;;;;;;;;;;0.85;72.61;101437.80;102705;1326;24199;-78
2021/12/13 09:55:03;;;;;;;;;;;;;;;0.84;72.33;101444.36;102812;1318;22547;-77
2021/12/13 09:57:33;;;;;;;;;;;;;;;0.78;72.29;101440.41;102656;1326;22592;-77
2021/12/13 10:00:12;;;;;;;;;;;;;;;0.72;72.51;101431.85;103026;1326;24227;-78
2021/12/13 10:02:41;;;;;;;;;;;;;;;0.78;72.57;101438.66;102940;1324;24291;-76
2021/12/13 10:05:11;;;;;;;;;;;;;;;0.71;72.37;101434.70;102766;1326;22572;-76
2021/12/13 10:07:40;;;;;;;;;;;;;;;0.76;72.57;101437.02;102844;1322;22579;-79
2021/12/13 10:10:10;;;;;;;;;;;;;;;0.78;72.47;101443.37;102903;1326;24294;-79
2021/12/13 10:12:52;;;;;;;;;;;;;;;0.85;72.52;101444.03;102925;1326;22664;-75
2021/12/13 10:15:29;;;;;;;;;;;;;;;0.92;72.52;101440.40;102884;1326;22576;-78
2021/12/13 10:17:58;;;;;;;;;;;;;;;1.03;72.51;101443.84;102790;1326;25254;-76
2021/12/13 10:20:28;;;;;;;;;;;;;;;1.09;72.35;101446.75;102888;1326;25367;-75
2021/12/13 10:22:55;;;;;;;;;;;;;;;1.13;72.14;101442.56;102908;1326;24485;-75
2021/12/13 10:25:26;;;;;;;;;;;;;;;1.13;72.23;101443.63;102914;1326;25207;-77
2021/12/13 10:27:54;;;;;;;;;;;;;;;1.12;71.99;101442.21;102987;1326;26607;-79
2021/12/13 10:30:33;;;;;;;;;;;;;;;1.12;72.03;101444.24;102821;1326;22608;-77
2021/12/13 10:33:02;;;;;;;;;;;;;;;1.07;71.78;101446.11;102813;1325;25245;-74
2021/12/13 10:35:31;;;;;;;;;;;;;;;1.06;71.97;101443.45;102240;1332;25369;-77
2021/12/13 10:38:02;;;;;;;;;;;;;;;1.09;72.14;101450.40;102240;1332;24323;-76
2021/12/13 10:40:34;;;;;;;;;;;;;;;1.07;71.94;101448.70;102410;1333;22646;-75
2021/12/13 10:43:12;;;;;;;;;;;;;;;1.02;71.87;101446.21;102262;1333;24232;-76
2021/12/13 10:45:45;;;;;;;;;;;;;;;0.94;71.99;101446.38;102329;1332;25523;-75
2021/12/13 10:48:15;;;;;;;;;;;;;;;0.92;71.92;101447.16;101919;1336;22550;-76
2021/12/13 10:50:47;;;;;;;;;;;;;;;0.85;72.03;101443.36;101810;1334;25236;-75
2021/12/13 10:53:16;;;;;;;;;;;;;;;0.87;72.24;101437.03;101963;1332;23971;-75
2021/12/13 10:55:46;;;;;;;;;;;;;;;0.91;72.42;101440.02;102131;1332;24298;-77
2021/12/13 10:58:17;;;;;;;;;;;;;;;0.96;72.32;101440.94;102043;1331;25672;-76
2021/12/13 11:00:47;;;;;;;;;;;;;;;0.95;72.41;101437.08;102025;1332;23068;-76
2021/12/13 11:03:16;;;;;;;;;;;;;;;0.90;71.86;101433.34;101651;1333;23287;-76
2021/12/13 11:05:49;;;;;;;;;;;;;;;0.91;72.31;101426.83;102028;1329;25725;-76
2021/12/13 11:08:17;;;;;;;;;;;;;;;1.03;72.45;101426.33;102362;1330;25215;-76
2021/12/13 11:10:46;;;;;;;;;;;;;;;1.08;72.02;101425.16;102444;1329;22599;-76
2021/12/13 11:13:22;;;;;;;;;;;;;;;1.01;71.73;101431.25;102461;1327;24223;-77
2021/12/13 11:15:53;;;;;;;;;;;;;;;1.02;72.13;101428.70;102539;1329;25459;-77
2021/12/13 11:18:27;;;;;;;;;;;;;;;1.07;72.22;101428.06;102405;1329;23867;-76
2021/12/13 11:20:56;;;;;;;;;;;;;;;1.04;72.02;101426.54;102363;1326;25593;-76
2021/12/13 11:23:23;;;;;;;;;;;;;;;0.97;71.78;101429.50;102887;1326;22813;-76
2021/12/13 11:25:55;;;;;;;;;;;;;;;0.85;71.84;101429.84;102923;1326;22604;-75
2021/12/13 11:28:23;;;;;;;;;;;;;;;0.65;71.93;101430.98;103131;1326;22579;-76
2021/12/13 11:30:50;;;;;;;;;;;;;;;0.52;72.19;101427.91;103034;1326;23130;-75
2021/12/13 11:33:36;;;;;;;;;;;;;;;0.43;72.53;101426.63;102894;1325;24183;-77
2021/12/13 11:36:06;;;;;;;;;;;;;;;0.54;73.27;101429.73;102862;1325;25561;-78
2021/12/13 11:38:42;;;;;;;;;;;;;;;0.50;72.47;101432.17;102803;1326;22578;-78
2021/12/13 11:41:11;;;;;;;;;;;;;;;0.35;72.71;101434.89;102843;1326;25364;-77
2021/12/13 11:43:57;;;;;;;;;;;;;;;0.31;73.24;101437.98;102819;1325;26525;-78
2021/12/13 11:46:43;;;;;;;;;;;;;;;0.32;73.45;101437.88;102807;1326;25360;-76
2021/12/13 11:49:28;;;;;;;;;;;;;;;0.28;73.58;101433.33;102756;1322;25462;-76
2021/12/13 11:52:13;;;;;;;;;;;;;;;0.36;74.08;101431.81;102856;1326;22614;-77
2021/12/13 11:54:59;;;;;;;;;;;;;;;0.43;74.08;101429.75;102730;1326;22813;-76
2021/12/13 11:57:45;;;;;;;;;;;;;;;0.49;73.86;101432.99;102795;1325;26533;-76
2021/12/13 12:00:17;;;;;;;;;;;;;;;0.50;73.88;101433.20;102890;1326;22561;-76
2021/12/13 12:03:03;;;;;;;;;;;;;;;0.38;73.22;101427.91;102887;1326;24376;-75
2021/12/13 12:06:03;;;;;;;;;;;;;;;0.36;73.81;101425.74;102809;1321;22549;-76
2021/12/13 12:08:43;;;;;;;;;;;;;;;0.49;74.31;101422.77;102986;1324;24295;-76
2021/12/13 12:11:32;;;;;;;;;;;;;;;0.62;74.13;101428.76;102536;1329;24067;-77
2021/12/13 12:14:05;;;;;;;;;;;;;;;0.71;73.79;101431.63;102302;1328;25241;-76
2021/12/13 12:16:36;;;;;;;;;;;;;;;0.62;72.96;101431.52;102574;1330;22583;-76
2021/12/13 12:19:04;;;;;;;;;;;;;;;0.44;72.95;101430.17;102416;1330;25220;-77
2021/12/13 12:21:31;;;;;;;;;;;;;;;0.40;73.53;101432.89;102583;1325;26519;-75
2021/12/13 12:23:59;;;;;;;;;;;;;;;0.47;73.92;101428.40;102444;1329;22577;-77
2021/12/13 12:26:26;;;;;;;;;;;;;;;0.56;73.94;101433.14;101858;1336;23105;-77
2021/12/13 12:28:58;;;;;;;;;;;;;;;0.63;73.89;101430.88;102060;1329;24327;-74
2021/12/13 12:31:29;;;;;;;;;;;;;;;0.71;73.72;101427.64;102272;1329;25225;-76
2021/12/13 12:33:58;;;;;;;;;;;;;;;0.78;73.83;101431.91;102274;1330;23375;-75
2021/12/13 12:36:37;;;;;;;;;;;;;;;0.86;73.71;101431.25;102257;1330;25255;-75
2021/12/13 12:39:04;;;;;;;;;;;;;;;0.90;73.53;101425.55;102313;1330;22818;-76
2021/12/13 12:41:40;;;;;;;;;;;;;;;0.91;73.36;101430.27;102268;1330;26644;-75
2021/12/13 12:44:16;;;;;;;;;;;;;;;0.84;72.68;101428.21;101954;1330;22715;-76
2021/12/13 12:46:43;;;;;;;;;;;;;;;0.63;72.27;101430.34;102289;1330;23117;-77
2021/12/13 12:49:15;;;;;;;;;;;;;;;0.42;72.78;101431.94;102262;1331;24593;-77
2021/12/13 12:51:43;;;;;;;;;;;;;;;0.43;73.56;101430.63;102102;1333;24328;-76
2021/12/13 12:54:14;;;;;;;;;;;;;;;0.54;73.75;101433.91;102288;1333;23264;-75
2021/12/13 12:56:46;;;;;;;;;;;;;;;0.56;73.07;101433.98;102135;1333;24425;-75
2021/12/13 12:59:13;;;;;;;;;;;;;;;0.49;73.22;101436.98;102132;1332;26529;-77
2021/12/13 13:01:49;;;;;;;;;;;;;;;0.46;73.06;101438.23;101599;1333;25485;-76
2021/12/13 13:04:21;;;;;;;;;;;;;;;0.41;73.44;101435.38;101994;1333;23661;-75